Terminal Aerodrome Forecast
Issued by NWS

Home | Current Version | Previous Version | Text Only | Print | Product List | Glossary Off
Versions: 1 2 3 4 5 6 7 8 9 10 11 12 13 14 15 16 17 18 19 20 21 22 23 24 25 26

000
FTUS43 KBIS 280200 AAB
TAFJMS
TAF AMD
KJMS 280205Z 2802/2824 16011KT 3SM -FZDZ OVC009
     FM280500 15007KT 1SM -FZDZ BR OVC004
     FM281500 17012KT P6SM SCT015
     FM281900 17018G27KT P6SM SCT140
     FM282200 18021G32KT P6SM BKN140=

USA.gov is the U.S. government's official web portal to all federal, state and local government web resources and services.